createdAt,value
2023-04-09T00:01:33.651Z,6.78
2023-04-09T00:04:01.750Z,6.78
2023-04-09T00:06:29.675Z,7.15
2023-04-09T00:08:57.645Z,7.75
2023-04-09T00:11:25.714Z,7.30
2023-04-09T00:13:53.539Z,7.55
2023-04-09T00:16:21.467Z,6.43
2023-04-09T00:18:51.755Z,6.93
2023-04-09T00:21:20.535Z,8.18
2023-04-09T00:23:48.467Z,7.20
2023-04-09T00:26:16.458Z,6.97
2023-04-09T00:28:44.715Z,7.47
2023-04-09T00:31:13.305Z,8.00
2023-04-09T00:33:41.209Z,7.80
2023-04-09T00:36:10.641Z,7.82
2023-04-09T00:38:38.569Z,8.00
2023-04-09T00:41:06.449Z,7.93
2023-04-09T00:43:34.397Z,7.43
2023-04-09T00:46:02.629Z,7.05
2023-04-09T00:48:30.558Z,7.57
2023-04-09T00:50:58.474Z,7.20
2023-04-09T00:53:28.023Z,7.60
2023-04-09T00:55:56.696Z,7.10
2023-04-09T00:58:24.615Z,7.82
2023-04-09T01:00:52.573Z,7.50
2023-04-09T01:03:20.818Z,7.97
2023-04-09T01:05:55.432Z,7.35
2023-04-09T01:08:34.391Z,7.38
2023-04-09T01:11:11.158Z,7.82
2023-04-09T01:13:48.282Z,7.03
2023-04-09T01:16:18.071Z,8.25
2023-04-09T01:18:53.599Z,6.85
2023-04-09T01:21:24.354Z,8.15
2023-04-09T01:24:03.688Z,8.02
2023-04-09T01:26:54.731Z,7.72
2023-04-09T01:29:31.443Z,8.07
2023-04-09T01:32:01.533Z,8.25
2023-04-09T01:34:30.145Z,7.70
2023-04-09T01:37:00.488Z,8.05
2023-04-09T01:39:29.254Z,9.55
2023-04-09T01:41:58.127Z,7.68
2023-04-09T01:44:29.127Z,8.95
2023-04-09T01:46:58.661Z,9.95
2023-04-09T01:49:27.022Z,9.43
2023-04-09T01:51:55.482Z,8.90
2023-04-09T01:54:23.588Z,10.00
2023-04-09T01:56:51.651Z,9.13
2023-04-09T01:59:19.752Z,9.43
2023-04-09T02:01:55.549Z,8.35
2023-04-09T02:04:27.795Z,9.07
2023-04-09T02:07:00.698Z,7.60
2023-04-09T02:09:32.055Z,6.63
2023-04-09T02:12:02.749Z,10.52
2023-04-09T02:14:33.407Z,10.50
2023-04-09T02:17:03.068Z,10.07
2023-04-09T02:19:40.298Z,9.95
2023-04-09T02:22:08.877Z,10.25
2023-04-09T02:24:37.358Z,10.02
2023-04-09T02:27:06.062Z,9.77
2023-04-09T02:29:34.451Z,9.75
2023-04-09T02:32:03.916Z,9.52
2023-04-09T02:34:31.763Z,9.20
2023-04-09T02:36:59.644Z,9.63
2023-04-09T02:39:28.130Z,9.20
2023-04-09T02:41:56.099Z,9.23
2023-04-09T02:44:24.034Z,10.60
2023-04-09T02:46:52.581Z,10.27
2023-04-09T02:49:22.233Z,10.18
2023-04-09T02:51:50.144Z,9.50
2023-04-09T02:54:18.066Z,11.13
2023-04-09T02:56:45.897Z,11.63
2023-04-09T02:59:13.786Z,10.23
2023-04-09T03:01:41.701Z,10.00
2023-04-09T03:04:10.169Z,9.90
2023-04-09T03:06:39.426Z,10.57
2023-04-09T03:09:07.302Z,11.65
2023-04-09T03:11:35.358Z,11.20
2023-04-09T03:14:03.216Z,12.25
2023-04-09T03:16:31.143Z,11.23
2023-04-09T03:18:58.982Z,10.30
2023-04-09T03:21:27.409Z,10.55
2023-04-09T03:23:56.686Z,11.43
2023-04-09T03:26:24.733Z,10.90
2023-04-09T03:28:52.841Z,9.98
2023-04-09T03:31:21.015Z,10.75
2023-04-09T03:33:49.372Z,10.93
2023-04-09T03:36:17.233Z,12.30
2023-04-09T03:39:02.941Z,12.27
2023-04-09T03:41:37.273Z,11.60
2023-04-09T03:44:09.443Z,11.93
2023-04-09T03:47:00.655Z,11.57
2023-04-09T03:49:29.732Z,11.50
2023-04-09T03:52:04.401Z,10.55
2023-04-09T03:54:39.640Z,10.48
2023-04-09T03:57:13.884Z,11.35
2023-04-09T03:59:45.192Z,10.55
2023-04-09T04:02:14.704Z,10.88
2023-04-09T04:04:48.445Z,11.65
2023-04-09T04:07:17.545Z,12.23
2023-04-09T04:09:51.212Z,10.18
2023-04-09T04:12:20.274Z,10.40
2023-04-09T04:15:11.274Z,10.07
2023-04-09T04:17:45.380Z,10.80
2023-04-09T04:20:22.093Z,10.60
2023-04-09T04:22:57.734Z,10.60
2023-04-09T04:25:28.832Z,10.95
2023-04-09T04:27:57.700Z,12.82
2023-04-09T04:30:33.201Z,12.02
2023-04-09T04:33:07.332Z,11.40
2023-04-09T04:35:43.110Z,10.27
2023-04-09T04:38:27.065Z,10.55
2023-04-09T04:40:57.176Z,10.75
2023-04-09T04:43:25.552Z,10.50
2023-04-09T04:45:57.249Z,10.80
2023-04-09T04:48:28.085Z,10.23
2023-04-09T04:50:57.276Z,11.57
2023-04-09T04:53:27.084Z,11.15
2023-04-09T04:55:57.686Z,11.70
2023-04-09T04:58:28.132Z,12.23
2023-04-09T05:01:00.407Z,11.82
2023-04-09T05:03:28.881Z,12.63
2023-04-09T05:06:01.846Z,12.57
2023-04-09T05:08:37.493Z,11.57
2023-04-09T05:11:06.798Z,12.48
2023-04-09T05:13:38.719Z,12.70
2023-04-09T05:16:19.889Z,12.18
2023-04-09T05:18:55.577Z,10.75
2023-04-09T05:21:23.456Z,10.57
2023-04-09T05:23:55.087Z,11.02
2023-04-09T05:26:24.569Z,10.40
2023-04-09T05:28:56.265Z,10.35
2023-04-09T05:31:25.509Z,11.55
2023-04-09T05:34:13.635Z,11.73
2023-04-09T05:36:49.099Z,11.25
2023-04-09T05:39:17.243Z,10.93
2023-04-09T05:41:47.250Z,10.27
2023-04-09T05:44:27.619Z,10.45
2023-04-09T05:47:07.202Z,10.80
2023-04-09T05:49:47.328Z,10.85
2023-04-09T05:52:17.530Z,9.77
2023-04-09T05:54:45.541Z,10.27
2023-04-09T05:57:18.626Z,10.05
2023-04-09T05:59:53.938Z,9.90
2023-04-09T06:02:22.983Z,9.25
2023-04-09T06:04:51.284Z,9.13
2023-04-09T06:07:19.203Z,8.50
2023-04-09T06:09:47.629Z,8.98
2023-04-09T06:12:15.704Z,9.68
2023-04-09T06:14:44.920Z,9.38
2023-04-09T06:17:12.798Z,8.77
2023-04-09T06:19:41.181Z,9.30
2023-04-09T06:22:11.311Z,10.60
2023-04-09T06:24:39.183Z,10.30
2023-04-09T06:27:07.824Z,9.93
2023-04-09T06:29:35.719Z,10.20
2023-04-09T06:32:05.754Z,10.57
2023-04-09T06:34:33.667Z,10.85
2023-04-09T06:37:01.540Z,10.63
2023-04-09T06:39:29.490Z,10.77
2023-04-09T06:41:57.294Z,10.32
2023-04-09T06:44:35.281Z,10.65
2023-04-09T06:47:04.496Z,10.85
2023-04-09T06:49:32.377Z,10.77
2023-04-09T06:52:00.438Z,9.55
2023-04-09T06:54:28.308Z,9.70
2023-04-09T06:56:56.497Z,10.38
2023-04-09T06:59:24.399Z,9.63
2023-04-09T07:01:54.470Z,8.88
2023-04-09T07:04:23.949Z,8.80
2023-04-09T07:09:42.020Z,8.63
2023-04-09T07:12:09.909Z,7.90
2023-04-09T07:14:37.769Z,8.75
2023-04-09T07:17:05.702Z,8.63
2023-04-09T07:19:34.913Z,9.65
2023-04-09T07:22:02.774Z,9.80
2023-04-09T07:24:31.179Z,9.00
2023-04-09T07:26:59.004Z,9.65
2023-04-09T07:29:27.362Z,9.77
2023-04-09T07:31:55.380Z,9.93
2023-04-09T07:34:23.338Z,8.00
2023-04-09T07:36:53.833Z,8.55
2023-04-09T07:39:22.285Z,8.93
2023-04-09T07:41:50.593Z,9.00
2023-04-09T07:44:18.593Z,8.63
2023-04-09T07:46:46.482Z,8.95
2023-04-09T07:49:14.406Z,8.27
2023-04-09T07:51:42.262Z,7.35
2023-04-09T07:54:11.830Z,6.88
2023-04-09T07:56:39.723Z,8.43
2023-04-09T07:59:07.571Z,7.38
2023-04-09T08:01:35.477Z,7.20
2023-04-09T08:04:03.944Z,7.78
2023-04-09T08:06:32.051Z,8.90
2023-04-09T08:08:59.931Z,6.80
2023-04-09T08:11:29.219Z,6.57
2023-04-09T08:13:57.420Z,7.50
2023-04-09T08:16:27.903Z,7.68
2023-04-09T08:18:56.178Z,9.32
2023-04-09T08:21:26.670Z,6.95
2023-04-09T08:23:59.200Z,6.45
2023-04-09T08:26:27.155Z,6.47
2023-04-09T08:28:56.357Z,7.18
2023-04-09T08:31:24.266Z,6.95
2023-04-09T08:33:53.510Z,7.35
2023-04-09T08:36:21.457Z,8.00
2023-04-09T08:38:49.812Z,7.47
2023-04-09T08:41:19.719Z,7.18
2023-04-09T08:43:57.807Z,6.90
2023-04-09T08:46:28.160Z,7.13
2023-04-09T08:48:57.112Z,7.60
2023-04-09T08:51:25.711Z,6.97
2023-04-09T08:53:57.550Z,7.55
2023-04-09T08:56:26.169Z,8.23
2023-04-09T08:58:55.142Z,7.85
2023-04-09T09:01:24.599Z,9.40
2023-04-09T09:04:04.728Z,8.73
2023-04-09T09:06:35.547Z,8.00
2023-04-09T09:09:06.125Z,8.63
2023-04-09T09:11:34.867Z,8.55
2023-04-09T09:14:04.042Z,8.40
2023-04-09T09:16:33.219Z,8.65
2023-04-09T09:19:03.637Z,8.00
2023-04-09T09:21:31.502Z,9.45
2023-04-09T09:23:59.865Z,9.20
2023-04-09T09:26:30.047Z,8.93
2023-04-09T09:28:59.281Z,8.98
2023-04-09T09:31:27.525Z,8.93
2023-04-09T09:33:55.662Z,9.27
2023-04-09T09:36:35.545Z,9.27
2023-04-09T09:39:09.705Z,9.32
2023-04-09T09:41:37.915Z,9.60
2023-04-09T09:44:07.184Z,9.80
2023-04-09T09:46:38.430Z,10.02
2023-04-09T09:49:06.885Z,9.65
2023-04-09T09:51:40.498Z,9.10
2023-04-09T09:54:09.661Z,9.40
2023-04-09T09:56:39.863Z,8.60
2023-04-09T09:59:08.962Z,9.15
2023-04-09T10:01:37.537Z,9.30
2023-04-09T10:04:07.751Z,9.07
2023-04-09T10:06:38.699Z,9.60
2023-04-09T10:09:07.726Z,8.77
2023-04-09T10:11:38.253Z,8.90
2023-04-09T10:14:06.397Z,9.27
2023-04-09T10:16:34.858Z,8.38
2023-04-09T10:19:03.712Z,8.77
2023-04-09T10:21:42.773Z,9.38
2023-04-09T10:24:11.454Z,8.90
2023-04-09T10:26:42.298Z,9.52
2023-04-09T10:29:13.787Z,9.50
2023-04-09T10:31:53.962Z,9.38
2023-04-09T10:34:23.600Z,8.75
2023-04-09T10:36:54.614Z,8.43
2023-04-09T10:39:27.045Z,9.82
2023-04-09T10:41:57.014Z,8.65
2023-04-09T10:44:26.309Z,8.57
2023-04-09T10:46:55.230Z,8.63
2023-04-09T10:49:24.288Z,7.93
2023-04-09T10:51:54.988Z,7.45
2023-04-09T10:54:46.070Z,8.30
2023-04-09T10:57:16.422Z,9.23
2023-04-09T10:59:46.201Z,10.55
2023-04-09T11:02:49.949Z,11.45
2023-04-09T11:05:27.286Z,10.00
2023-04-09T11:08:06.318Z,10.32
2023-04-09T11:10:34.713Z,12.20
2023-04-09T11:13:03.044Z,11.60
2023-04-09T11:15:32.345Z,11.55
2023-04-09T11:18:00.516Z,11.02
2023-04-09T11:20:28.601Z,11.40
2023-04-09T11:22:57.923Z,11.05
2023-04-09T11:25:27.509Z,10.63
2023-04-09T11:27:55.732Z,10.73
2023-04-09T11:30:23.877Z,10.68
2023-04-09T11:32:52.097Z,10.55
2023-04-09T11:35:21.448Z,10.55
2023-04-09T11:37:52.231Z,10.73
2023-04-09T11:40:23.236Z,9.57
2023-04-09T11:42:52.761Z,10.10
2023-04-09T11:45:22.267Z,9.20
2023-04-09T11:47:50.509Z,10.85
2023-04-09T11:50:18.998Z,10.00
2023-04-09T11:52:47.660Z,9.20
2023-04-09T11:55:26.116Z,9.65
2023-04-09T11:57:57.722Z,9.90
2023-04-09T12:00:26.141Z,8.90
2023-04-09T12:03:02.237Z,9.63
2023-04-09T12:05:31.897Z,9.65
2023-04-09T12:08:01.561Z,8.77
2023-04-09T12:10:31.896Z,9.27
2023-04-09T12:13:04.142Z,9.20
2023-04-09T12:15:34.610Z,9.63
2023-04-09T12:18:03.419Z,9.25
2023-04-09T12:20:33.159Z,10.10
2023-04-09T12:23:03.563Z,10.52
2023-04-09T12:25:33.735Z,10.48
2023-04-09T12:28:02.074Z,10.48
2023-04-09T12:30:30.391Z,9.48
2023-04-09T12:32:58.351Z,9.70
2023-04-09T12:35:26.859Z,10.65
2023-04-09T12:37:54.869Z,9.65
2023-04-09T12:40:23.270Z,9.95
2023-04-09T12:42:52.627Z,9.80
2023-04-09T12:45:21.261Z,10.02
2023-04-09T12:47:49.253Z,9.45
2023-04-09T12:50:17.609Z,8.82
2023-04-09T12:52:46.046Z,11.23
2023-04-09T12:55:14.565Z,11.55
2023-04-09T12:57:45.262Z,10.77
2023-04-09T13:00:15.885Z,10.93
2023-04-09T13:02:44.017Z,10.85
2023-04-09T13:05:12.644Z,10.20
2023-04-09T13:07:42.861Z,11.02
2023-04-09T13:10:11.448Z,11.27
2023-04-09T13:12:39.351Z,10.85
2023-04-09T13:15:08.296Z,10.75
2023-04-09T13:17:37.566Z,11.45
2023-04-09T13:20:06.814Z,12.13
2023-04-09T13:22:34.683Z,12.15
2023-04-09T13:25:02.573Z,12.02
2023-04-09T13:27:30.533Z,12.00
2023-04-09T13:29:58.369Z,11.27
2023-04-09T13:32:26.225Z,11.18
2023-04-09T13:34:55.755Z,10.70
2023-04-09T13:37:23.660Z,9.48
2023-04-09T13:39:51.802Z,9.88
2023-04-09T13:42:19.782Z,10.02
2023-04-09T13:44:47.682Z,9.68
2023-04-09T13:47:18.702Z,10.15
2023-04-09T13:49:46.814Z,10.63
2023-04-09T13:52:16.101Z,10.10
2023-04-09T13:54:44.016Z,9.90
2023-04-09T13:57:12.018Z,12.00
2023-04-09T13:59:41.635Z,11.55
2023-04-09T14:02:10.264Z,10.95
2023-04-09T14:04:38.366Z,10.18
2023-04-09T14:07:06.303Z,10.00
2023-04-09T14:09:35.971Z,9.43
2023-04-09T14:12:03.952Z,8.75
2023-04-09T14:14:31.794Z,7.28
2023-04-09T14:16:59.697Z,6.68
2023-04-09T14:19:27.541Z,7.43
2023-04-09T14:21:56.005Z,6.80
2023-04-09T14:24:23.818Z,6.72
2023-04-09T14:26:53.600Z,8.07
2023-04-09T14:29:22.237Z,8.50
2023-04-09T14:31:50.259Z,8.15
2023-04-09T14:34:18.208Z,8.27
2023-04-09T14:36:46.033Z,8.73
2023-04-09T14:39:13.851Z,9.25
2023-04-09T14:41:41.707Z,8.45
2023-04-09T14:44:11.163Z,9.07
2023-04-09T14:46:39.136Z,8.90
2023-04-09T14:49:07.005Z,8.27
2023-04-09T14:51:34.963Z,7.95
2023-04-09T14:54:02.835Z,8.35
2023-04-09T14:56:30.721Z,7.47
2023-04-09T14:58:58.659Z,8.10
2023-04-09T15:01:28.473Z,8.10
2023-04-09T15:03:56.753Z,7.63
2023-04-09T15:06:24.858Z,8.38
2023-04-09T15:08:52.814Z,8.05
2023-04-09T15:11:22.830Z,8.25
2023-04-09T15:13:52.046Z,7.38
2023-04-09T15:16:24.155Z,7.18
2023-04-09T15:18:55.688Z,7.57
2023-04-09T15:21:24.023Z,7.70
2023-04-09T15:23:52.468Z,7.47
2023-04-09T15:26:20.685Z,6.85
2023-04-09T15:28:48.933Z,7.05
2023-04-09T15:31:16.793Z,7.65
2023-04-09T15:33:44.774Z,8.27
2023-04-09T15:36:14.111Z,7.38
2023-04-09T15:38:45.578Z,7.70
2023-04-09T15:41:13.486Z,7.68
2023-04-09T15:43:41.339Z,7.32
2023-04-09T15:46:10.754Z,7.30
2023-04-09T15:48:39.031Z,6.85
2023-04-09T15:51:07.289Z,7.72
2023-04-09T15:53:36.720Z,6.65
2023-04-09T15:56:05.487Z,6.93
2023-04-09T15:58:33.447Z,7.05
2023-04-09T16:01:01.429Z,7.55
2023-04-09T16:03:29.410Z,6.15
2023-04-09T16:05:57.318Z,7.10
2023-04-09T16:08:26.710Z,7.38
2023-04-09T16:10:55.891Z,6.93
2023-04-09T16:13:23.730Z,6.93
2023-04-09T16:15:51.609Z,6.65
2023-04-09T16:18:19.539Z,7.18
2023-04-09T16:20:47.430Z,7.63
2023-04-09T16:23:15.390Z,6.82
2023-04-09T16:25:43.245Z,6.68
2023-04-09T16:28:14.135Z,7.40
2023-04-09T16:30:42.127Z,7.82
2023-04-09T16:33:10.314Z,7.28
2023-04-09T16:35:39.752Z,6.55
2023-04-09T16:38:08.393Z,6.40
2023-04-09T16:40:36.378Z,6.20
2023-04-09T16:43:04.393Z,6.60
2023-04-09T16:45:33.666Z,5.97
2023-04-09T16:48:01.641Z,6.38
2023-04-09T16:50:29.650Z,6.75
2023-04-09T16:52:57.480Z,6.30
2023-04-09T16:55:25.438Z,5.90
2023-04-09T16:57:55.845Z,5.45
2023-04-09T17:00:23.710Z,5.68
2023-04-09T17:02:53.002Z,5.95
2023-04-09T17:05:22.389Z,6.22
2023-04-09T17:07:50.573Z,6.07
2023-04-09T17:10:19.192Z,5.57
2023-04-09T17:12:47.250Z,6.05
2023-04-09T17:15:15.310Z,6.65
2023-04-09T17:17:43.977Z,6.35
2023-04-09T17:20:14.212Z,7.00
2023-04-09T17:22:42.299Z,6.18
2023-04-09T17:25:10.557Z,5.85
2023-04-09T17:27:38.444Z,6.13
2023-04-09T17:30:07.368Z,5.63
2023-04-09T17:32:35.248Z,5.35
2023-04-09T17:35:03.624Z,5.75
2023-04-09T17:37:32.908Z,5.35
2023-04-09T17:40:00.971Z,6.63
2023-04-09T17:42:29.366Z,5.75
2023-04-09T17:44:57.252Z,5.60
2023-04-09T17:47:26.647Z,5.88
2023-04-09T17:49:54.708Z,6.97
2023-04-09T17:52:22.588Z,6.30
2023-04-09T17:54:52.196Z,5.55
2023-04-09T17:57:20.070Z,6.22
2023-04-09T17:59:48.863Z,6.15
2023-04-09T18:02:16.890Z,5.97
2023-04-09T18:04:44.907Z,5.57
2023-04-09T18:07:13.066Z,5.85
2023-04-09T18:09:41.177Z,6.32
2023-04-09T18:12:10.819Z,6.43
2023-04-09T18:14:38.690Z,6.97
2023-04-09T18:17:06.787Z,6.90
2023-04-09T18:19:35.548Z,6.85
2023-04-09T18:22:03.420Z,7.03
2023-04-09T18:24:32.701Z,6.53
2023-04-09T18:27:02.192Z,7.72
2023-04-09T18:29:32.239Z,6.95
2023-04-09T18:32:00.265Z,7.03
2023-04-09T18:34:28.989Z,7.07
2023-04-09T18:36:56.983Z,6.90
2023-04-09T18:39:24.864Z,6.85
2023-04-09T18:41:52.756Z,7.35
2023-04-09T18:44:20.650Z,6.72
2023-04-09T18:46:49.919Z,7.05
2023-04-09T18:49:17.855Z,7.15
2023-04-09T18:51:45.827Z,7.28
2023-04-09T18:54:14.040Z,7.00
2023-04-09T18:56:42.206Z,7.78
2023-04-09T18:59:10.737Z,7.45
2023-04-09T19:01:38.640Z,7.45
2023-04-09T19:04:08.043Z,7.40
2023-04-09T19:06:36.042Z,7.68
2023-04-09T19:09:04.604Z,7.80
2023-04-09T19:11:32.442Z,7.68
2023-04-09T19:14:00.281Z,8.52
2023-04-09T19:16:28.197Z,8.25
2023-04-09T19:18:56.620Z,7.57
2023-04-09T19:21:25.871Z,7.80
2023-04-09T19:23:53.711Z,8.38
2023-04-09T19:26:22.078Z,10.93
2023-04-09T19:28:49.978Z,26.42
2023-04-09T19:31:17.864Z,11.73
2023-04-09T19:33:45.751Z,13.38
2023-04-09T19:36:14.066Z,10.88
2023-04-09T19:38:43.312Z,10.02
2023-04-09T19:41:12.934Z,10.10
2023-04-09T19:43:42.301Z,9.32
2023-04-09T19:46:10.640Z,9.68
2023-04-09T19:48:40.559Z,9.13
2023-04-09T19:51:08.416Z,10.18
2023-04-09T19:53:37.644Z,8.85
2023-04-09T19:56:07.555Z,10.00
2023-04-09T19:58:35.424Z,10.27
2023-04-09T20:01:03.376Z,9.23
2023-04-09T20:03:33.050Z,10.65
2023-04-09T20:06:00.974Z,10.57
2023-04-09T20:08:28.813Z,10.25
2023-04-09T20:10:56.691Z,11.50
2023-04-09T20:13:26.254Z,8.75
2023-04-09T20:15:54.647Z,9.45
2023-04-09T20:18:22.493Z,8.27
2023-04-09T20:20:50.943Z,8.80
2023-04-09T20:23:18.836Z,8.93
2023-04-09T20:25:46.682Z,9.57
2023-04-09T20:28:14.562Z,8.95
2023-04-09T20:30:43.782Z,9.25
2023-04-09T20:33:11.662Z,9.77
2023-04-09T20:35:39.599Z,9.77
2023-04-09T20:38:07.444Z,9.82
2023-04-09T20:40:37.377Z,9.70
2023-04-09T20:43:06.415Z,8.73
2023-04-09T20:45:34.388Z,9.80
2023-04-09T20:48:03.773Z,9.80
2023-04-09T20:50:31.954Z,10.27
2023-04-09T20:52:59.976Z,9.93
2023-04-09T20:55:27.874Z,10.15
2023-04-09T20:57:56.372Z,10.77
2023-04-09T21:00:24.434Z,10.43
2023-04-09T21:02:52.442Z,9.82
2023-04-09T21:05:23.994Z,9.45
2023-04-09T21:07:53.133Z,11.00
2023-04-09T21:10:21.477Z,10.60
2023-04-09T21:12:49.691Z,10.10
2023-04-09T21:15:17.916Z,10.45
2023-04-09T21:17:45.941Z,10.75
2023-04-09T21:20:15.040Z,11.45
2023-04-09T21:22:44.342Z,10.88
2023-04-09T21:25:14.594Z,10.13
2023-04-09T21:27:43.208Z,12.25
2023-04-09T21:30:11.690Z,12.27
2023-04-09T21:32:39.727Z,11.48
2023-04-09T21:35:08.203Z,13.35
2023-04-09T21:37:37.536Z,13.60
2023-04-09T21:40:08.412Z,12.77
2023-04-09T21:42:36.282Z,12.48
2023-04-09T21:45:04.277Z,11.80
2023-04-09T21:47:33.029Z,12.73
2023-04-09T21:50:01.030Z,12.90
2023-04-09T21:52:28.881Z,12.90
2023-04-09T21:54:56.764Z,12.30
2023-04-09T21:57:25.972Z,12.90
2023-04-09T21:59:53.847Z,11.00
2023-04-09T22:02:21.785Z,13.60
2023-04-09T22:04:49.783Z,12.40
2023-04-09T22:07:17.796Z,12.38
2023-04-09T22:09:45.747Z,12.23
2023-04-09T22:12:13.619Z,12.55
2023-04-09T22:14:42.913Z,12.98
2023-04-09T22:17:10.747Z,13.38
2023-04-09T22:19:38.687Z,12.15
2023-04-09T22:22:06.571Z,12.60
2023-04-09T22:24:34.408Z,12.38
2023-04-09T22:27:02.593Z,12.35
2023-04-09T22:29:30.572Z,12.32
2023-04-09T22:31:59.803Z,11.57
2023-04-09T22:34:27.664Z,11.80
2023-04-09T22:36:55.532Z,12.18
2023-04-09T22:39:23.357Z,11.85
2023-04-09T22:41:51.219Z,12.15
2023-04-09T22:44:19.084Z,11.50
2023-04-09T22:46:47.045Z,11.90
2023-04-09T22:49:17.401Z,12.40
2023-04-09T22:51:45.722Z,11.75
2023-04-09T22:54:13.601Z,11.02
2023-04-09T22:56:41.454Z,12.93
2023-04-09T22:59:09.338Z,11.57
2023-04-09T23:01:37.306Z,12.13
2023-04-09T23:04:05.321Z,12.23
2023-04-09T23:06:34.600Z,12.75
2023-04-09T23:09:02.492Z,13.20
2023-04-09T23:11:30.511Z,13.02
2023-04-09T23:13:58.401Z,13.43
2023-04-09T23:16:26.443Z,13.65
2023-04-09T23:18:54.529Z,13.23
2023-04-09T23:21:22.628Z,14.00
2023-04-09T23:23:52.089Z,14.00
2023-04-09T23:26:20.675Z,13.93
2023-04-09T23:28:48.519Z,13.98
2023-04-09T23:31:16.374Z,13.15
2023-04-09T23:33:44.255Z,13.93
2023-04-09T23:36:12.128Z,13.63
2023-04-09T23:38:43.676Z,13.48
2023-04-09T23:41:13.890Z,12.82
2023-04-09T23:43:41.977Z,13.32
2023-04-09T23:46:09.830Z,13.63
2023-04-09T23:48:37.698Z,12.50
2023-04-09T23:51:06.067Z,12.80
2023-04-09T23:53:33.926Z,12.98
2023-04-09T23:56:01.788Z,13.60
2023-04-09T23:58:32.091Z,12.27
